Strona główna
METAR-TAF:

METAR-TAF

Lotnisko :

Port lotniczy Tokio-Haneda

Tokio-Haneda, Japonia

Szerokość geograficzna: 35-33N, Długość geograficzna: 139-47E, wysokość: 5 m

Aktualna obserwacja pogody

Raport powstał 14 minut temu, godzina 09:00 UTC
Wiatr 13 kt od południowy wschód
Temperatura 26°C
Wilgotność 58%
Ciśnienie 1013 hPa
Widzialność 10 km lub więcej
Mało chmury na wysokości 2500 ft
Przerywane chmury

METAR: RJTT 190900Z 13013KT 9999 FEW025 BKN/// 26/17 Q1013 NOSIG

czas: 18:14 (09:14 UTC)

Prognoza

Raport powstał 4 godziny i 9 minut temu, godzina 05:05 UTC
Prognoza ważna od 19 godzina 06 UTC do 20 godzina 12 UTC
Wiatr 10 kt od wschodnio-południowy wschód
Widzialność 10 km lub więcej
Mało chmury na wysokości 3000 ft
Stopniowe zmiany
od 19 godzina 14 UTC do 19 godzina 16 UTC
Wiatr 10 kt od północ

TAF: RJTT 190505Z 1906/2012 12010KT 9999 FEW030 BECMG 1914/1916 01010KT

Obserwacja i prognoza pogody dla ponad 4000 lotnisk (raport METAR i TAF).

Dostępne stacje oznaczono żółtymi i czerwonymi punktami na mapie.

Najedź kursorem aby zobaczyć nazwę stacji.

Kliknij aby zobaczyć obserwacje i prognozy pogody.

Aby zmienić mapę: kliknij na zielony przycisk z czarnym krzyżykiem, aby powiększyć; na zielony przycisk z myślnikiem, aby pomniejszyć; na zielone strzałki, aby przejść do map sąsiednich.


METAR-TAF: